Townsville Airport
YBTL : now visible

Airfield :











YOU CAN JOIN US ON...

 
LOGIN :

Register | Disclaimer

   EN    FR    IT 

 









Legend :    VFR   Marginal VFR   IFR   Intensive IFR   Very Intensive IFR
Visi :
Ceiling :
>= 8 km
>= 3000ft
5 to 8 km
1000 to 3000 ft
1500m to 5 km
500 to 1000 ft
800 to 1500m
200 to 500 ft
< 800m
< 200 ft
Symbols :   Thunderstorms  Fog  Heavy snow  Heavy precipitations  Wind > 20 kt






- Airport Elevation : 18 ft
- IATA code : TSV


YBTL - Townsville

CURRENT METAR :
  • 240400Z AUTO 06013KT 9999 // NCD 28/20 Q1012

EXPIRED METARs :
  • 240330Z 05013KT 9999 FEW040 SCT120 29/20 Q1012 NOSIG
  • 240300Z 06013KT 9999 FEW040 SCT120 28/20 Q1013
  • 240230Z 05012KT 9999 FEW038 SCT350 28/19 Q1013 NOSIG
  • 240200Z 06014KT 9999 FEW035 28/20 Q1013
  • 240130Z 05013KT 9999 FEW032 29/21 Q1014 NOSIG

TAF TAF YBTL
Valid from the 24 at 00:00 until the 25 at 00:00 UTC


232259Z 2400/2500 05014KT 9999 SCT030
FM240900 VRB05KT 9999 FEW015 INTER 2414/2422 9999 BKN014
YBBB FIR / Oceania



MET'MAP, your aeronautical weather chart ! - Copyright ORBIFLY December 2007 - Disclaimer

ORBIFLY MET'MAP TEAM :

Programming & Development : Alexandra Zaïnal
Concept & original design : Baudouin d'Aumeries
Assistance for programming : Marc-Olivier Méhu
Technical & hardware support : Manuel Goepfert

Contact : metmap@orbifly.com




SOURCES & CREDITS :

   NOAA       Earth
Advisory